Ialibu Airport


Codes: AYIU/IAL
Name: Ialibu Airport
City: Ialibu
Country: Papua New Guinea
Elevation: 6736 ft.

Photos at Ialibu Airport


   Photos courtesy of SpottingLog. You can add your own sightings and photos by signing up for a free trial today.



No photos found.

Weather at Ialibu Airport


Time (UTC)DescriptionTempratureWindCloud coverageVisibilityPressureHumidity
16-Jun-2024 12:00Light Rain15°C2 mph, E97%509m1016hPa100%
16-Jun-2024 15:00Overcast Clouds15°C2 mph, E99%1315m1016hPa99%
16-Jun-2024 18:00Overcast Clouds15°C0 mph, E100%5203m1016hPa98%
16-Jun-2024 21:00Overcast Clouds14°C2 mph, NE90%5323m1017hPa99%
17-Jun-2024 00:00Overcast Clouds17°C2 mph, SE91%10000m1017hPa84%
17-Jun-2024 03:00Light Rain20°C4 mph, SE92%10000m1013hPa72%
17-Jun-2024 06:00Light Rain17°C2 mph, SE96%10000m1013hPa92%
17-Jun-2024 09:00Light Rain15°C2 mph, SE96%10000m1016hPa99%
17-Jun-2024 12:00Light Rain14°C2 mph, NE97%10000m1017hPa97%
17-Jun-2024 15:00Overcast Clouds13°C2 mph, NE98%5130m1017hPa99%
17-Jun-2024 18:00Overcast Clouds12°C2 mph, N98%10000m1016hPa97%
17-Jun-2024 21:00Broken Clouds12°C2 mph, N56%10000m1016hPa96%
18-Jun-2024 00:00Broken Clouds17°C2 mph, SE78%10000m1015hPa82%
18-Jun-2024 03:00Light Rain18°C4 mph, SE100%10000m1013hPa81%
18-Jun-2024 06:00Light Rain17°C2 mph, SE100%10000m1012hPa93%
18-Jun-2024 09:00Light Rain15°C2 mph, SE100%2344m1014hPa100%
18-Jun-2024 12:00Light Rain15°C2 mph, SE100%428m1016hPa100%
18-Jun-2024 15:00Light Rain15°C2 mph, SE100%612m1015hPa99%
18-Jun-2024 18:00Light Rain14°C2 mph, E100%2145m1014hPa97%
18-Jun-2024 21:00Light Rain14°C2 mph, E98%26m1016hPa99%
19-Jun-2024 00:00Light Rain15°C2 mph, SE98%897m1016hPa96%
19-Jun-2024 03:00Light Rain16°C4 mph, SE100%5210m1014hPa95%
19-Jun-2024 06:00Light Rain17°C2 mph, SE100%10000m1012hPa87%
19-Jun-2024 09:00Light Rain15°C2 mph, SE100%1945m1014hPa98%
19-Jun-2024 12:00Overcast Clouds14°C2 mph, E100%7784m1016hPa98%
19-Jun-2024 15:00Overcast Clouds13°C2 mph, NE100%5957m1015hPa99%
19-Jun-2024 18:00Overcast Clouds13°C0 mph, N100%10000m1015hPa98%
19-Jun-2024 21:00Overcast Clouds14°C0 mph, SE100%10000m1015hPa95%
20-Jun-2024 00:00Overcast Clouds16°C2 mph, SE100%10000m1016hPa84%
20-Jun-2024 03:00Light Rain19°C4 mph, S100%10000m1013hPa69%
20-Jun-2024 06:00Light Rain17°C2 mph, SE100%10000m1012hPa91%
20-Jun-2024 09:00Light Rain15°C2 mph, SE100%3885m1015hPa100%
20-Jun-2024 12:00Light Rain15°C2 mph, SE100%3271m1017hPa100%
20-Jun-2024 15:00Light Rain14°C0 mph, S100%1189m1015hPa100%
20-Jun-2024 18:00Light Rain14°C0 mph, S100%2997m1015hPa99%
20-Jun-2024 21:00Overcast Clouds14°C2 mph, W100%10000m1016hPa97%
21-Jun-2024 00:00Overcast Clouds17°C2 mph, S100%10000m1016hPa85%
21-Jun-2024 03:00Light Rain18°C2 mph, S97%10000m1013hPa83%
21-Jun-2024 06:00Light Rain16°C2 mph, SE98%10000m1013hPa96%
21-Jun-2024 09:00Light Rain15°C2 mph, N100%0m1016hPa99%